Stevenson, Maryland
Current Conditions -  °F | °C
As of 10:54 PM on Sunday 23 Nov 2014 (Local Time) from KBWI Reporting Station
Light Rain Light Rain  
Wind Chill: 46°   Ceiling: 3700
Heat Index: 48°   Visibility: 4mi
Dew Point: 45°   Wind: 5mph
Humidity: 89%   Direction: 30°NNE
Pressure: 29.89"   Gusts: NA
Location:  39.41°N, 76.71°W
Report Text: KBWI 240354Z 03004KT 4SM -RA BR FEW019 OVC037 09/07 A2989 RMK AO2 RAE0256B44 PRESFR SLP121 P0000 T00890072
Loading
Personal Weather Stations






























Interactive Weather Map New forecast layout! Learn more

10-Day Weather Forecast

Advertisements
Track Severe Weather on mobile